Lil T — WDJ5591 — position and weather

sailwx.info

Track history (hours):
 
Tides and Currents Weather Stations Pressure Air Temp Water Temp Dewpoint Dewpoint Depression Visibility Wind Speed Wind Dir Waves Ship Positions

Lil T

Owner: Dean Equipment Inc., Harvey, LA. More information available from US FCC via Universal Licensing System and Coast Guard Vessel Documentation Center.

Last reported at 2017-Nov-10 07:11 UTC. Time now 2017-Nov-20 12:02 UTC.
Position N 29°33' W 090°28'.
Warning: this ship's position is 10 days out of date.

Length 17 m.

Type: Towing. MMSI: 367789350.

Date/timePositionNaut miles runAvg speedWind from/ knotsBaromVisibWave heightAir tempDewpointWater temp
2017-Nov-10 07:11N 29°33' W 090°28'1 6.4
2017-Nov-10 07:00N 29°34' W 090°30'3 6.2
2017-Nov-10 06:30N 29°34' W 090°33'3 6.0
2017-Nov-10 06:00N 29°35' W 090°36'3 5.6
2017-Nov-10 05:30N 29°36' W 090°39'3 5.6
2017-Nov-10 05:00N 29°37' W 090°42'3 5.2
2017-Nov-10 04:30N 29°34' W 090°43'2 4.0
2017-Nov-10 04:00N 29°33' W 090°45'2 3.5
2017-Nov-10 03:30N 29°32' W 090°47'3 6.4
2017-Nov-10 03:00N 29°32' W 090°50'59 4.8
2017-Nov-09 14:48N 29°51' W 091°55'3 6.0
2017-Nov-09 14:20N 29°50' W 091°58'2 6.0
2017-Nov-09 14:00N 29°50' W 091°60'3 6.1
2017-Nov-09 13:30N 29°49' W 092°03'3 6.0
2017-Nov-09 13:00N 29°48' W 092°06'3 5.9
2017-Nov-09 12:30N 29°47' W 092°10'2 3.3
2017-Nov-09 12:00N 29°47' W 092°12'0 0.0
2017-Nov-09 11:30N 29°47' W 092°12'0 0.0
2017-Nov-09 11:00N 29°47' W 092°12'0 0.0
2017-Nov-09 10:30N 29°47' W 092°12'0 0.0
2017-Nov-09 10:00N 29°47' W 092°12'0 0.0
2017-Nov-09 09:30N 29°47' W 092°12'0 0.0
2017-Nov-09 09:00N 29°47' W 092°12'0 0.0
2017-Nov-09 08:30N 29°47' W 092°12'0 0.0
2017-Nov-09 08:00N 29°47' W 092°12'0 0.0
2017-Nov-09 07:30N 29°47' W 092°12'0 0.0
2017-Nov-09 07:00N 29°47' W 092°12'0 0.0
2017-Nov-09 06:30N 29°47' W 092°12'0 0.0
2017-Nov-09 06:00N 29°47' W 092°12'0 0.0
2017-Nov-09 05:30N 29°47' W 092°12'0 0.0
2017-Nov-09 05:00N 29°47' W 092°12'0 0.0
2017-Nov-09 04:30N 29°47' W 092°12'0 0.0
2017-Nov-09 04:00N 29°47' W 092°12'0 0.0
2017-Nov-09 03:30N 29°47' W 092°12'0 0.0
2017-Nov-09 03:00N 29°47' W 092°12'0 0.0
2017-Nov-09 02:30N 29°47' W 092°12'0 0.0
2017-Nov-09 02:00N 29°47' W 092°12'1 1.6
2017-Nov-09 01:30N 29°47' W 092°12'3 5.8
2017-Nov-09 01:00N 29°48' W 092°15'3 6.3
2017-Nov-09 00:30N 29°50' W 092°18'4 6.1
2017-Nov-08 23:52N 29°52' W 092°22'39 4.0
2017-Nov-08 14:17N 29°56' W 093°07'2 5.9
2017-Nov-08 14:00N 29°56' W 093°09'3 5.5
2017-Nov-08 13:30N 29°58' W 093°11'3 6.0
2017-Nov-08 13:00N 30°00' W 093°13'3 5.2
2017-Nov-08 12:30N 30°02' W 093°15'3 5.7
2017-Nov-08 12:00N 30°05' W 093°17'0 0.5
2017-Nov-08 11:30N 30°05' W 093°17'0 0.0
2017-Nov-08 11:00N 30°05' W 093°17'0 0.0
2017-Nov-08 10:30N 30°05' W 093°17'0 0.0
2017-Nov-08 10:00N 30°05' W 093°17'0 0.0
2017-Nov-08 09:30N 30°05' W 093°17'0 0.0
2017-Nov-08 09:00N 30°05' W 093°17'0 0.0
2017-Nov-08 08:30N 30°05' W 093°17'0 0.0
2017-Nov-08 08:00N 30°05' W 093°17'0 0.0
2017-Nov-08 07:30N 30°05' W 093°17'0 0.0
2017-Nov-08 07:00N 30°05' W 093°17'0 0.0
2017-Nov-08 06:30N 30°05' W 093°17'1 1.6
2017-Nov-08 06:00N 30°05' W 093°18'1 1.8
2017-Nov-08 05:30N 30°06' W 093°18'0 0.2
2017-Nov-08 05:00N 30°06' W 093°18'0 0.0
2017-Nov-08 04:30N 30°06' W 093°18'0 0.0
2017-Nov-08 04:00N 30°06' W 093°18'0 0.0
2017-Nov-08 03:30N 30°06' W 093°18'0 0.0
2017-Nov-08 03:00N 30°06' W 093°18'0 0.0
2017-Nov-08 02:30N 30°06' W 093°18'0 0.0
2017-Nov-08 02:00N 30°06' W 093°18'0 0.0
2017-Nov-08 01:30N 30°06' W 093°18'0 0.1
2017-Nov-08 01:00N 30°06' W 093°18'2 3.0
2017-Nov-08 00:30N 30°05' W 093°20'2 4.5
2017-Nov-08 00:00N 30°04' W 093°21'3 5.8
2017-Nov-07 23:30N 30°04' W 093°25'3 6.2
2017-Nov-07 23:00N 30°04' W 093°28'3 6.3
2017-Nov-07 22:30N 30°04' W 093°32'3 6.3
2017-Nov-07 22:00N 30°04' W 093°36'3 5.8
2017-Nov-07 21:30N 30°04' W 093°39'76 1.8
2017-Nov-06 02:29N 29°47' W 095°05'0 0.0
2017-Nov-06 01:58N 29°47' W 095°05'0 0.0
2017-Nov-06 01:30N 29°47' W 095°05'0 0.0
2017-Nov-06 01:00N 29°47' W 095°05'0 0.0
2017-Nov-06 00:30N 29°47' W 095°05'0 0.0
2017-Nov-06 00:00N 29°47' W 095°05'0 0.0
2017-Nov-05 23:27N 29°47' W 095°05'0 0.0
2017-Nov-05 23:00N 29°47' W 095°05'0 0.0
2017-Nov-05 22:30N 29°47' W 095°05'0 0.0
2017-Nov-05 22:00N 29°47' W 095°05'0 0.0
2017-Nov-05 21:30N 29°47' W 095°05'0 0.0
2017-Nov-05 21:00N 29°47' W 095°05'0 0.0
2017-Nov-05 20:30N 29°47' W 095°05'0 0.0
2017-Nov-05 18:55N 29°47' W 095°05'0 0.0
2017-Nov-05 18:29N 29°47' W 095°05'0 0.0
2017-Nov-05 18:00N 29°47' W 095°05'0 0.1
2017-Nov-05 17:30N 29°47' W 095°05'0 0.0
2017-Nov-05 17:00N 29°47' W 095°05'  
2017-Nov-01 21:53N 29°46' W 095°05'0 0.0
2017-Nov-01 21:26N 29°46' W 095°05'0 0.0
2017-Nov-01 21:00N 29°46' W 095°05'0 0.0
2017-Nov-01 20:29N 29°46' W 095°05'0 0.0
2017-Nov-01 20:00N 29°46' W 095°05'0 0.0
2017-Nov-01 19:30N 29°46' W 095°05'0 0.0
2017-Oct-31 16:05N 29°46' W 095°05'1 6.7
2017-Oct-31 15:55N 29°45' W 095°04'3 6.4
2017-Oct-31 15:27N 29°43' W 095°01'3 6.2
2017-Oct-31 15:00N 29°41' W 094°59'3 6.9
2017-Oct-31 14:30N 29°38' W 094°58'4 7.4
2017-Oct-31 14:00N 29°35' W 094°56'  
Track history (hours):
 
Tides and Currents Weather Stations Pressure Air Temp Water Temp Dewpoint Dewpoint Depression Visibility Wind Speed Wind Dir Waves Ship Positions

Lil T

Owner: Dean Equipment Inc., Harvey, LA. More information available from US FCC via Universal Licensing System and Coast Guard Vessel Documentation Center.

Last reported at 2017-Nov-10 07:11 UTC. Time now 2017-Nov-20 12:02 UTC.
Position N 29°33' W 090°28'.
Warning: this ship's position is 10 days out of date.

Length 17 m.

Type: Towing. MMSI: 367789350.

Date/timePositionNaut miles runAvg speedWind from/ knotsBaromVisibWave heightAir tempDewpointWater temp
2017-Nov-10 07:11N 29°33' W 090°28'1 6.4
2017-Nov-10 07:00N 29°34' W 090°30'3 6.2
2017-Nov-10 06:30N 29°34' W 090°33'3 6.0
2017-Nov-10 06:00N 29°35' W 090°36'3 5.6
2017-Nov-10 05:30N 29°36' W 090°39'3 5.6
2017-Nov-10 05:00N 29°37' W 090°42'3 5.2
2017-Nov-10 04:30N 29°34' W 090°43'2 4.0
2017-Nov-10 04:00N 29°33' W 090°45'2 3.5
2017-Nov-10 03:30N 29°32' W 090°47'3 6.4
2017-Nov-10 03:00N 29°32' W 090°50'59 4.8
2017-Nov-09 14:48N 29°51' W 091°55'3 6.0
2017-Nov-09 14:20N 29°50' W 091°58'2 6.0
2017-Nov-09 14:00N 29°50' W 091°60'3 6.1
2017-Nov-09 13:30N 29°49' W 092°03'3 6.0
2017-Nov-09 13:00N 29°48' W 092°06'3 5.9
2017-Nov-09 12:30N 29°47' W 092°10'2 3.3
2017-Nov-09 12:00N 29°47' W 092°12'0 0.0
2017-Nov-09 11:30N 29°47' W 092°12'0 0.0
2017-Nov-09 11:00N 29°47' W 092°12'0 0.0
2017-Nov-09 10:30N 29°47' W 092°12'0 0.0
2017-Nov-09 10:00N 29°47' W 092°12'0 0.0
2017-Nov-09 09:30N 29°47' W 092°12'0 0.0
2017-Nov-09 09:00N 29°47' W 092°12'0 0.0
2017-Nov-09 08:30N 29°47' W 092°12'0 0.0
2017-Nov-09 08:00N 29°47' W 092°12'0 0.0
2017-Nov-09 07:30N 29°47' W 092°12'0 0.0
2017-Nov-09 07:00N 29°47' W 092°12'0 0.0
2017-Nov-09 06:30N 29°47' W 092°12'0 0.0
2017-Nov-09 06:00N 29°47' W 092°12'0 0.0
2017-Nov-09 05:30N 29°47' W 092°12'0 0.0
2017-Nov-09 05:00N 29°47' W 092°12'0 0.0
2017-Nov-09 04:30N 29°47' W 092°12'0 0.0
2017-Nov-09 04:00N 29°47' W 092°12'0 0.0
2017-Nov-09 03:30N 29°47' W 092°12'0 0.0
2017-Nov-09 03:00N 29°47' W 092°12'0 0.0
2017-Nov-09 02:30N 29°47' W 092°12'0 0.0
2017-Nov-09 02:00N 29°47' W 092°12'1 1.6
2017-Nov-09 01:30N 29°47' W 092°12'3 5.8
2017-Nov-09 01:00N 29°48' W 092°15'3 6.3
2017-Nov-09 00:30N 29°50' W 092°18'4 6.1
2017-Nov-08 23:52N 29°52' W 092°22'39 4.0
2017-Nov-08 14:17N 29°56' W 093°07'2 5.9
2017-Nov-08 14:00N 29°56' W 093°09'3 5.5
2017-Nov-08 13:30N 29°58' W 093°11'3 6.0
2017-Nov-08 13:00N 30°00' W 093°13'3 5.2
2017-Nov-08 12:30N 30°02' W 093°15'3 5.7
2017-Nov-08 12:00N 30°05' W 093°17'0 0.5
2017-Nov-08 11:30N 30°05' W 093°17'0 0.0
2017-Nov-08 11:00N 30°05' W 093°17'0 0.0
2017-Nov-08 10:30N 30°05' W 093°17'0 0.0
2017-Nov-08 10:00N 30°05' W 093°17'0 0.0
2017-Nov-08 09:30N 30°05' W 093°17'0 0.0
2017-Nov-08 09:00N 30°05' W 093°17'0 0.0
2017-Nov-08 08:30N 30°05' W 093°17'0 0.0
2017-Nov-08 08:00N 30°05' W 093°17'0 0.0
2017-Nov-08 07:30N 30°05' W 093°17'0 0.0
2017-Nov-08 07:00N 30°05' W 093°17'0 0.0
2017-Nov-08 06:30N 30°05' W 093°17'1 1.6
2017-Nov-08 06:00N 30°05' W 093°18'1 1.8
2017-Nov-08 05:30N 30°06' W 093°18'0 0.2
2017-Nov-08 05:00N 30°06' W 093°18'0 0.0
2017-Nov-08 04:30N 30°06' W 093°18'0 0.0
2017-Nov-08 04:00N 30°06' W 093°18'0 0.0
2017-Nov-08 03:30N 30°06' W 093°18'0 0.0
2017-Nov-08 03:00N 30°06' W 093°18'0 0.0
2017-Nov-08 02:30N 30°06' W 093°18'0 0.0
2017-Nov-08 02:00N 30°06' W 093°18'0 0.0
2017-Nov-08 01:30N 30°06' W 093°18'0 0.1
2017-Nov-08 01:00N 30°06' W 093°18'2 3.0
2017-Nov-08 00:30N 30°05' W 093°20'2 4.5
2017-Nov-08 00:00N 30°04' W 093°21'3 5.8
2017-Nov-07 23:30N 30°04' W 093°25'3 6.2
2017-Nov-07 23:00N 30°04' W 093°28'3 6.3
2017-Nov-07 22:30N 30°04' W 093°32'3 6.3
2017-Nov-07 22:00N 30°04' W 093°36'3 5.8
2017-Nov-07 21:30N 30°04' W 093°39'76 1.8
2017-Nov-06 02:29N 29°47' W 095°05'0 0.0
2017-Nov-06 01:58N 29°47' W 095°05'0 0.0
2017-Nov-06 01:30N 29°47' W 095°05'0 0.0
2017-Nov-06 01:00N 29°47' W 095°05'0 0.0
2017-Nov-06 00:30N 29°47' W 095°05'0 0.0
2017-Nov-06 00:00N 29°47' W 095°05'0 0.0
2017-Nov-05 23:27N 29°47' W 095°05'0 0.0
2017-Nov-05 23:00N 29°47' W 095°05'0 0.0
2017-Nov-05 22:30N 29°47' W 095°05'0 0.0
2017-Nov-05 22:00N 29°47' W 095°05'0 0.0
2017-Nov-05 21:30N 29°47' W 095°05'0 0.0
2017-Nov-05 21:00N 29°47' W 095°05'0 0.0
2017-Nov-05 20:30N 29°47' W 095°05'0 0.0
2017-Nov-05 18:55N 29°47' W 095°05'0 0.0
2017-Nov-05 18:29N 29°47' W 095°05'0 0.0
2017-Nov-05 18:00N 29°47' W 095°05'0 0.1
2017-Nov-05 17:30N 29°47' W 095°05'0 0.0
2017-Nov-05 17:00N 29°47' W 095°05'  
2017-Nov-01 21:53N 29°46' W 095°05'0 0.0
2017-Nov-01 21:26N 29°46' W 095°05'0 0.0
2017-Nov-01 21:00N 29°46' W 095°05'0 0.0
2017-Nov-01 20:29N 29°46' W 095°05'0 0.0
2017-Nov-01 20:00N 29°46' W 095°05'0 0.0
2017-Nov-01 19:30N 29°46' W 095°05'0 0.0
2017-Oct-31 16:05N 29°46' W 095°05'1 6.7
2017-Oct-31 15:55N 29°45' W 095°04'3 6.4
2017-Oct-31 15:27N 29°43' W 095°01'3 6.2
2017-Oct-31 15:00N 29°41' W 094°59'3 6.9
2017-Oct-31 14:30N 29°38' W 094°58'4 7.4
2017-Oct-31 14:00N 29°35' W 094°56'  

Dump ship's entire track history